KANB/ANB METAR and TAF weather

Enter ICAO airport designator
Station Type Date Time Source
KANB METAR 2023/02/05 22:53 UTC NOAA

KANB 052253Z AUTO 25007KT 10SM CLR 16/06 A3013 RMK AO2 SLP205 T01560056


Station Type Date Time Source
KANB Decoded METAR 2023/02/05 22:53 UTC NOAA

ANNISTON METRO AIRPORT, AL, United States (KANB) 33-35N 085-51W 183M
Feb 05, 2023 - 05:53 PM EST / 2023.02.05 2253 UTC
Wind: from the WSW (250 degrees) at 8 MPH (7 KT):0
Visibility: 10 mile(s):0
Sky conditions: clear
Temperature: 60.1 F (15.6 C)
Dew Point: 42.1 F (5.6 C)
Relative Humidity: 51%
Pressure (altimeter): 30.13 in. Hg (1020 hPa)
ob: KANB 052253Z AUTO 25007KT 10SM CLR 16/06 A3013 RMK AO2 SLP205 T01560056
cycle: 23

Station Type Date Time Source
KANB TAF 2023/02/05 18:22 UTC NOAA

TAF KANB 051720Z 0518/0618 20008KT P6SM SCT045 BKN250
FM052200 25007KT P6SM SKC
FM060200 00000KT P6SM SKC

Example: see airport list